^^
Datos históricos de la estación: Murcia-Puente Tocinos
Diario Informe para Noviembre 15, 2019 Unidades:  Métrico    Ingés   Ambas
Diario Semanal Mensual Anual
  Máxima: Mínima: Promedio:
Temperatura: 14.9 °C 8.3 °C 11.9 °C
Punto de rocio: 4.8 °C -0.9 °C 1.8 °C
Humedad: 71% 34% 51%
Velocidad viento: 20.9km/h 0km/h 9km/h
Racha viento: 37.8km/h - -
Viento- - SO
Presión: 1006.7 hPa 1001.1 hPa -
Precipitación: 0.0 mm    
 
 
Tabla de datos para Noviembre 15, 2019
Hora Temperatura Punto de rocio Presión Viento Velocidad viento Racha viento Humedad Intensidad lluvia(por hora) Nubes
00:04 12.4 °C 1.9 °C 1001.4 hPa Sur 8.5 km/h 18.5 km/h 49% 0.0 mm
00:09 12.4 °C 1.9 °C 1001.5 hPa Sur 8.4 km/h 19.3 km/h 48.6% 0.0 mm
00:14 12.5 °C 1.9 °C 1001.5 hPa SSE 10.7 km/h 20.9 km/h 48.5% 0.0 mm
00:19 12.3 °C 2 °C 1001.5 hPa SSE 11.9 km/h 20.9 km/h 49.3% 0.0 mm
00:24 12.3 °C 2.1 °C 1001.5 hPa Sur 12.1 km/h 22.5 km/h 49.7% 0.0 mm
00:29 12.3 °C 2.1 °C 1001.5 hPa Sur 12.2 km/h 22.5 km/h 49.8% 0.0 mm
00:34 12.2 °C 2.2 °C 1001.5 hPa SSE 12 km/h 20.9 km/h 50.3% 0.0 mm
00:39 12.2 °C 2.3 °C 1001.6 hPa Sur 11.9 km/h 19.3 km/h 51% 0.0 mm
00:44 12.2 °C 2.3 °C 1001.6 hPa Sur 11.9 km/h 17.7 km/h 51% 0.0 mm
00:49 12.2 °C 2.5 °C 1001.6 hPa Sur 11.9 km/h 20.9 km/h 51.8% 0.0 mm
00:54 12.1 °C 2.6 °C 1001.6 hPa Sur 11.9 km/h 20.9 km/h 52% 0.0 mm
00:59 12 °C 2.7 °C 1001.4 hPa Sur 11.9 km/h 20.9 km/h 52.8% 0.0 mm
01:04 12 °C 2.7 °C 1001.4 hPa Sur 13.1 km/h 24.1 km/h 53% 0.0 mm
01:09 12.2 °C 2.6 °C 1001.4 hPa SSO 13.7 km/h 24.1 km/h 52.3% 0.0 mm
01:14 12.3 °C 2.7 °C 1001.4 hPa SSO 14.4 km/h 22.5 km/h 52% 0.0 mm
01:19 12.3 °C 2.6 °C 1001.4 hPa SSO 14.8 km/h 24.1 km/h 51.2% 0.0 mm
01:24 12.5 °C 2.5 °C 1001.4 hPa SSO 14.8 km/h 29.1 km/h 50.5% 0.0 mm
01:29 12.6 °C 2.4 °C 1001.2 hPa SSO 14.8 km/h 29.6 km/h 50% 0.0 mm
01:34 12.7 °C 2.5 °C 1001.2 hPa SSO 16.9 km/h 29 km/h 50% 0.0 mm
01:39 12.7 °C 2.3 °C 1001.2 hPa SSO 18 km/h 25.7 km/h 49.2% 0.0 mm
01:44 12.7 °C 2.2 °C 1001.1 hPa SSO 16.8 km/h 25.9 km/h 49% 0.0 mm
01:49 12.8 °C 2.3 °C 1001.1 hPa SSO 16.1 km/h 29.6 km/h 49% 0.0 mm
01:54 12.8 °C 2.3 °C 1001.1 hPa SSO 16.1 km/h 29 km/h 49% 0.0 mm
01:59 12.8 °C 2.3 °C 1001.1 hPa SSO 16.1 km/h 35.2 km/h 49% 0.0 mm
02:04 12.7 °C 2.2 °C 1001.1 hPa SSO 16.3 km/h 35.4 km/h 49% 0.0 mm
02:09 12.7 °C 2.1 °C 1001.3 hPa SO 16.4 km/h 31.7 km/h 48.5% 0.0 mm
02:14 12.8 °C 2 °C 1001.3 hPa SSO 14.6 km/h 32.2 km/h 48% 0.0 mm
02:19 12.8 °C 2.1 °C 1001.3 hPa SSO 13.7 km/h 24.1 km/h 48% 0.0 mm
02:24 12.8 °C 2.1 °C 1001.5 hPa SSO 12 km/h 24.5 km/h 48% 0.0 mm
02:29 12.8 °C 2 °C 1001.5 hPa Sur 11.1 km/h 24.1 km/h 48% 0.0 mm
02:34 12.7 °C 2.1 °C 1001.5 hPa Sur 11.6 km/h 22.5 km/h 48.5% 0.0 mm
02:39 12.5 °C 2.1 °C 1001.7 hPa SSO 11.9 km/h 16.1 km/h 49% 0.0 mm
02:44 12.4 °C 2.1 °C 1001.7 hPa SSO 9.9 km/h 14.8 km/h 49.5% 0.0 mm
02:49 12.3 °C 2.2 °C 1001.7 hPa SO 8.7 km/h 18.3 km/h 50% 0.0 mm
02:54 12.2 °C 2.3 °C 1001.8 hPa SSO 8.5 km/h 19.3 km/h 51% 0.0 mm
02:59 12.2 °C 2.4 °C 1001.8 hPa SSO 8.4 km/h 16.7 km/h 51.1% 0.0 mm
03:04 12.2 °C 2.6 °C 1001.8 hPa SSO 9.7 km/h 16.7 km/h 51.9% 0.0 mm
03:09 12.1 °C 2.6 °C 1001.9 hPa SSO 10.3 km/h 18 km/h 52% 0.0 mm
03:14 12.2 °C 2.5 °C 1001.9 hPa SSO 10.3 km/h 19.3 km/h 51.8% 0.0 mm
03:19 12.2 °C 2.5 °C 1001.9 hPa SSO 10.3 km/h 17.2 km/h 51.5% 0.0 mm
03:24 12.2 °C 2.5 °C 1001.9 hPa SO 10.3 km/h 17.7 km/h 51.6% 0.0 mm
03:29 12.1 °C 2.6 °C 1001.9 hPa OSO 10.3 km/h 16.1 km/h 52% 0.0 mm
03:34 12 °C 2.7 °C 1001.9 hPa NNO 8.2 km/h 11.3 km/h 52.9% 0.0 mm
03:39 11.6 °C 2.8 °C 1002.0 hPa NO 6.9 km/h 9.3 km/h 55% 0.0 mm
03:44 11.1 °C 2.9 °C 1002.0 hPa NO 5.7 km/h 9.7 km/h 57.1% 0.0 mm
03:49 10.8 °C 2.8 °C 1002.0 hPa ONO 5 km/h 9.7 km/h 58% 0.0 mm
03:54 10.7 °C 2.9 °C 1002.0 hPa NO 4.8 km/h 8.4 km/h 58.5% 0.0 mm
03:59 10.7 °C 2.9 °C 1002.0 hPa NNO 4.7 km/h 8 km/h 59% 0.0 mm
04:04 10.5 °C 3 °C 1002.0 hPa North 4.7 km/h 8.7 km/h 59.8% 0.0 mm
04:09 10.3 °C 3.1 °C 1002.1 hPa ESE 4.7 km/h 9.7 km/h 60.8% 0.0 mm
04:14 10.2 °C 3 °C 1002.1 hPa ESE 3.7 km/h 9.7 km/h 61% 0.0 mm
04:19 10.2 °C 3.2 °C 1002.1 hPa ESE 3.2 km/h 7.4 km/h 61.9% 0.0 mm
04:24 10.1 °C 3.2 °C 1002.2 hPa ESE 3.2 km/h 8 km/h 62.2% 0.0 mm
04:29 10.1 °C 3.2 °C 1002.2 hPa ESE 3.2 km/h 8.4 km/h 62% 0.0 mm
04:34 10.2 °C 3 °C 1002.2 hPa ESE 3.6 km/h 8.4 km/h 61.1% 0.0 mm
04:39 10.3 °C 3.1 °C 1002.2 hPa ESE 3.9 km/h 9.3 km/h 60.9% 0.0 mm
04:44 10.4 °C 3 °C 1002.1 hPa ESE 5.1 km/h 9.7 km/h 60.3% 0.0 mm
04:49 10.4 °C 3.2 °C 1002.1 hPa ESE 5.8 km/h 8 km/h 60.8% 0.0 mm
04:54 10.3 °C 3.2 °C 1002.1 hPa ESE 4.5 km/h 8 km/h 61% 0.0 mm
04:59 10.2 °C 3 °C 1002.1 hPa SE 3.9 km/h 8 km/h 61% 0.0 mm
05:04 10.3 °C 3.1 °C 1002.1 hPa SE 4.6 km/h 8.4 km/h 61.2% 0.0 mm
05:09 10.4 °C 3.1 °C 1002.1 hPa SSE 5 km/h 8 km/h 60.5% 0.0 mm
05:14 10.4 °C 3.3 °C 1002.0 hPa SSE 3.9 km/h 4.8 km/h 61.5% 0.0 mm
05:19 10.3 °C 3.2 °C 1002.0 hPa SSE 3.2 km/h 7.4 km/h 61.4% 0.0 mm
05:24 10.3 °C 3.1 °C 1002.2 hPa SSO 3 km/h 11.1 km/h 61.1% 0.0 mm
05:29 10.3 °C 3 °C 1002.2 hPa SO 2.9 km/h 11.3 km/h 60.4% 0.0 mm
05:34 10.4 °C 3.2 °C 1002.2 hPa OSO 5.2 km/h 9.7 km/h 61.1% 0.0 mm
05:39 10.3 °C 3.4 °C 1002.2 hPa Oeste 6.5 km/h 9.7 km/h 62.4% 0.0 mm
05:44 10.1 °C 3.6 °C 1002.2 hPa Oeste 5.3 km/h 8 km/h 64.1% 0.0 mm
05:49 9.8 °C 3.7 °C 1002.2 hPa ONO 4.7 km/h 8.4 km/h 65.6% 0.0 mm
05:54 9.5 °C 3.6 °C 1002.4 hPa NO 4.1 km/h 8 km/h 66.9% 0.0 mm
05:59 9.2 °C 3.7 °C 1002.4 hPa NO 3.9 km/h 9.5 km/h 68.4% 0.0 mm
06:04 9.2 °C 3.7 °C 1002.4 hPa ESE 4.4 km/h 11.9 km/h 68.8% 0.0 mm
06:09 9 °C 3.5 °C 1002.6 hPa ESE 4.7 km/h 11.3 km/h 68.4% 0.0 mm
06:14 8.9 °C 3.6 °C 1002.6 hPa SE 7.1 km/h 12.2 km/h 69.3% 0.0 mm
06:19 8.9 °C 3.7 °C 1002.6 hPa SE 8.4 km/h 13.7 km/h 70% 0.0 mm
06:24 8.9 °C 3.7 °C 1002.7 hPa Sur 7.9 km/h 14.5 km/h 70% 0.0 mm
06:29 9 °C 3.8 °C 1002.7 hPa Sur 7.6 km/h 9.7 km/h 69.8% 0.0 mm
06:34 9.2 °C 3.8 °C 1002.7 hPa SSE 5.2 km/h 8.4 km/h 69.1% 0.0 mm
06:39 9.3 °C 3.9 °C 1002.7 hPa SSE 3.9 km/h 9.5 km/h 69% 0.0 mm
06:44 9.4 °C 3.8 °C 1002.6 hPa SSE 4.6 km/h 9.7 km/h 68.3% 0.0 mm
06:49 9.4 °C 3.8 °C 1002.6 hPa SSE 5 km/h 9.7 km/h 68% 0.0 mm
06:54 9.4 °C 3.9 °C 1002.8 hPa Sur 3.9 km/h 7.4 km/h 68.6% 0.0 mm
06:59 9.3 °C 4 °C 1002.8 hPa NO 3.2 km/h 8 km/h 69.5% 0.0 mm
07:04 9.3 °C 3.8 °C 1002.8 hPa ONO 3 km/h 9.5 km/h 68.7% 0.0 mm
07:09 9.4 °C 3.6 °C 1002.8 hPa SSE 2.9 km/h 10 km/h 67.5% 0.0 mm
07:14 9.6 °C 3.6 °C 1002.8 hPa SSE 4.2 km/h 9.7 km/h 66.1% 0.0 mm
07:19 9.7 °C 3.7 °C 1002.8 hPa SSE 5 km/h 4.8 km/h 66% 0.0 mm
07:24 9.8 °C 3.9 °C 1002.8 hPa SSE 3.2 km/h 4.8 km/h 66.9% 0.0 mm
07:29 9.8 °C 3.9 °C 1002.8 hPa SSE 2.2 km/h 5.6 km/h 67% 0.0 mm
07:34 9.7 °C 3.7 °C 1002.8 hPa SSE 2.7 km/h 7.6 km/h 66.3% 0.0 mm
07:39 9.7 °C 3.7 °C 1003.2 hPa SSE 2.9 km/h 8 km/h 66.1% 0.0 mm
07:44 9.8 °C 3.9 °C 1003.2 hPa SSE 3.1 km/h 4.8 km/h 67% 0.0 mm
07:49 9.7 °C 3.7 °C 1003.2 hPa SSE 3.2 km/h 5.8 km/h 66.1% 0.0 mm
07:54 9.7 °C 3.6 °C 1003.2 hPa SSE 3 km/h 8.4 km/h 65.7% 0.0 mm
07:59 9.7 °C 3.6 °C 1003.2 hPa SSO 2.9 km/h 8 km/h 65.7% 0.0 mm
08:04 9.8 °C 3.8 °C 1003.2 hPa OSO 3.6 km/h 8 km/h 66.3% 0.0 mm
08:09 9.7 °C 3.9 °C 1003.3 hPa Oeste 3.9 km/h 8 km/h 67.5% 0.0 mm
08:14 9.4 °C 3.9 °C 1003.3 hPa Oeste 3.9 km/h 8 km/h 68.7% 0.0 mm
08:19 9.2 °C 4 °C 1003.3 hPa ONO 3.9 km/h 8 km/h 69.8% 0.0 mm
08:24 9.2 °C 4.1 °C 1003.7 hPa ONO 3.9 km/h 7.4 km/h 70.5% 0.0 mm
08:29 9.1 °C 4.1 °C 1003.7 hPa ONO 3.9 km/h 8 km/h 71% 0.0 mm
08:34 9.2 °C 4.2 °C 1003.7 hPa Oeste 3.9 km/h 8 km/h 71% 0.0 mm
08:39 9.3 °C 4.1 °C 1003.8 hPa Oeste 3.9 km/h 8 km/h 70.2% 0.0 mm
08:44 9.5 °C 4.5 °C 1003.8 hPa Oeste 1.4 km/h   71% 0.0 mm
08:49 10 °C 4.8 °C 1003.8 hPa Calm   2.9 km/h 70.4% 0.0 mm
08:54 10.3 °C 4.7 °C 1004.1 hPa Calm   7.6 km/h 68.2% 0.0 mm
08:59 10.6 °C 4.7 °C 1004.1 hPa Calm   8 km/h 67% 0.0 mm
09:04 10.7 °C 4.8 °C 1004.1 hPa SSE 1.5 km/h 5.8 km/h 66.8% 0.0 mm
09:09 10.8 °C 4.7 °C 1004.1 hPa SO 2.2 km/h 7.4 km/h 66.1% 0.0 mm
09:14 10.9 °C 4.8 °C 1004.1 hPa SO 2.9 km/h 8 km/h 66% 0.0 mm
09:19 10.9 °C 4.6 °C 1004.1 hPa OSO 3.2 km/h 7.4 km/h 65.2% 0.0 mm
09:24 11.1 °C 4.8 °C 1004.2 hPa OSO 3.2 km/h 8 km/h 65.1% 0.0 mm
09:29 11.2 °C 4.1 °C 1004.2 hPa Oeste 3.2 km/h 7.6 km/h 62% 0.0 mm
09:34 11.3 °C 3.9 °C 1004.2 hPa ONO 3.2 km/h 8 km/h 60.3% 0.0 mm
09:39 11.4 °C 3.7 °C 1004.4 hPa Oeste 3.2 km/h 8 km/h 59% 0.0 mm
09:44 11.6 °C 3.5 °C 1004.4 hPa SO 3.2 km/h 8 km/h 57.8% 0.0 mm
09:49 11.7 °C 3.4 °C 1004.4 hPa SO 3.2 km/h 7.4 km/h 57% 0.0 mm
09:54 11.8 °C 3.4 °C 1004.4 hPa OSO 3.6 km/h 10 km/h 56.5% 0.0 mm
09:59 11.9 °C 3.4 °C 1004.4 hPa Oeste 3.9 km/h 9.7 km/h 55.9% 0.0 mm
10:04 12 °C 3.5 °C 1004.4 hPa SO 5.1 km/h 11.1 km/h 56% 0.0 mm
10:09 12 °C 3.5 °C 1004.6 hPa OSO 5.8 km/h 11.3 km/h 55.9% 0.0 mm
10:14 12.1 °C 3.5 °C 1004.6 hPa OSO 5.1 km/h 8.4 km/h 56% 0.0 mm
10:19 12.1 °C 3.5 °C 1004.6 hPa OSO 4.7 km/h 9.5 km/h 55.9% 0.0 mm
10:24 12.1 °C 3.2 °C 1004.7 hPa OSO 4.7 km/h 13 km/h 54.6% 0.0 mm
10:29 12.2 °C 3.1 °C 1004.7 hPa OSO 4.7 km/h 13 km/h 54% 0.0 mm
10:34 12.3 °C 3.2 °C 1004.7 hPa OSO 6.5 km/h 12.9 km/h 54% 0.0 mm
10:39 12.4 °C 3.2 °C 1004.7 hPa OSO 7.6 km/h 15.6 km/h 53.4% 0.0 mm
10:44 12.4 °C 3 °C 1004.7 hPa Oeste 8.1 km/h 16.1 km/h 52.8% 0.0 mm
10:49 12.5 °C 3.4 °C 1004.7 hPa OSO 8.4 km/h 14.5 km/h 53.8% 0.0 mm
10:54 12.7 °C 3.4 °C 1004.7 hPa OSO 7.9 km/h 13 km/h 53.2% 0.0 mm
10:59 12.7 °C 3.3 °C 1004.7 hPa Oeste 7.6 km/h 19 km/h 52.8% 0.0 mm
11:04 12.8 °C 3.2 °C 1004.7 hPa Oeste 8.1 km/h 19.3 km/h 51.9% 0.0 mm
11:09 12.8 °C 3 °C 1004.7 hPa ONO 8.4 km/h 19.3 km/h 51.4% 0.0 mm
11:14 13 °C 3.2 °C 1004.7 hPa NO 9.4 km/h 19.3 km/h 51.3% 0.0 mm
11:19 12.9 °C 3.4 °C 1004.7 hPa NO 10 km/h 19.3 km/h 52.6% 0.0 mm
11:24 12.9 °C 3.2 °C 1004.8 hPa ONO 10.2 km/h 19.3 km/h 51.9% 0.0 mm
11:29 13.1 °C 3.5 °C 1004.8 hPa NO 10.3 km/h 17.2 km/h 52% 0.0 mm
11:34 13.3 °C 3.4 °C 1004.8 hPa ONO 9.8 km/h 17.7 km/h 51.2% 0.0 mm
11:39 13.4 °C 2.9 °C 1004.8 hPa Oeste 9.5 km/h 29.6 km/h 49.3% 0.0 mm
11:44 13.4 °C 2.8 °C 1004.8 hPa Oeste 12.2 km/h 29.6 km/h 48.9% 0.0 mm
11:49 13.4 °C 2.7 °C 1004.8 hPa Oeste 13.7 km/h 29.8 km/h 48.4% 0.0 mm
11:54 13.4 °C 2.6 °C 1004.8 hPa OSO 13.7 km/h 30.6 km/h 47.9% 0.0 mm
11:59 13.6 °C 2.5 °C 1004.6 hPa Oeste 13.7 km/h 24.5 km/h 47% 0.0 mm
12:04 13.7 °C 2.2 °C 1004.6 hPa OSO 14.9 km/h 31.7 km/h 45.9% 0.0 mm
12:09 13.7 °C 2.2 °C 1004.6 hPa Oeste 15.6 km/h 32.2 km/h 45.9% 0.0 mm
12:14 13.8 °C 2.2 °C 1004.5 hPa Oeste 14.6 km/h 25.9 km/h 45.4% 0.0 mm
12:19 14 °C 1.9 °C 1004.5 hPa OSO 14 km/h 25.9 km/h 44% 0.0 mm
12:24 14 °C 1.9 °C 1004.5 hPa OSO 14 km/h 29.8 km/h 43.8% 0.0 mm
12:29 13.7 °C 1.8 °C 1004.3 hPa Oeste 14 km/h 30.6 km/h 44.4% 0.0 mm
12:34 13.6 °C 1.9 °C 1004.3 hPa OSO 14 km/h 27.8 km/h 45% 0.0 mm
12:39 13.7 °C 1.9 °C 1004.3 hPa Oeste 14 km/h 27.4 km/h 44.9% 0.0 mm
12:44 13.7 °C 1.9 °C 1004.2 hPa Oeste 15.1 km/h 27.8 km/h 44.9% 0.0 mm
12:49 13.7 °C 1.7 °C 1004.2 hPa Oeste 15.6 km/h 27.8 km/h 44.2% 0.0 mm
12:54 13.7 °C 1.4 °C 1004.2 hPa OSO 15.1 km/h 27.8 km/h 43.5% 0.0 mm
12:59 13.7 °C 1.5 °C 1004.0 hPa Oeste 14.8 km/h 29.6 km/h 43.5% 0.0 mm
13:04 13.9 °C 1.1 °C 1004.0 hPa Oeste 15.4 km/h 29 km/h 41.7% 0.0 mm
13:09 14 °C 1.4 °C 1004.0 hPa OSO 15.6 km/h 27.4 km/h 42.2% 0.0 mm
13:14 14.3 °C 1.2 °C 1003.6 hPa Oeste 15.6 km/h 35.2 km/h 41% 0.0 mm
13:19 14.3 °C 0.6 °C 1003.6 hPa ONO 15.6 km/h 35.4 km/h 39.1% 0.0 mm
13:24 14.3 °C 0.5 °C 1003.6 hPa Oeste 17.4 km/h 37.8 km/h 39% 0.0 mm
13:29 14.3 °C 0.2 °C 1003.3 hPa Oeste 18.4 km/h 37 km/h 38.2% 0.0 mm
13:34 14.3 °C 0.6 °C 1003.3 hPa Oeste 20 km/h 37.8 km/h 39% 0.0 mm
13:39 14.5 °C 0.5 °C 1003.3 hPa Oeste 20.9 km/h 37 km/h 38.5% 0.0 mm
13:44 14.5 °C -0.1 °C 1003.3 hPa OSO 19.7 km/h 35.4 km/h 36.8% 0.0 mm
13:49 14.6 °C -0.1 °C 1003.3 hPa Oeste 19 km/h 35.4 km/h 36.6% 0.0 mm
13:54 14.6 °C 0 °C 1003.3 hPa Oeste 17.3 km/h 27.8 km/h 36.9% 0.0 mm
13:59 14.7 °C 0.1 °C 1003.2 hPa Oeste 16.4 km/h 28.2 km/h 37% 0.0 mm
14:04 14.6 °C 0.1 °C 1003.2 hPa Oeste 15.3 km/h 30.6 km/h 37% 0.0 mm
14:09 14.7 °C 0.1 °C 1003.3 hPa OSO 14.8 km/h 30.6 km/h 37% 0.0 mm
14:14 14.7 °C 0 °C 1003.3 hPa Oeste 15.6 km/h 27.8 km/h 36.8% 0.0 mm
14:19 14.7 °C 0.2 °C 1003.3 hPa Oeste 16.1 km/h 27.4 km/h 37% 0.0 mm
14:24 14.8 °C 0.1 °C 1003.3 hPa OSO 13.4 km/h 29.8 km/h 36.6% 0.0 mm
14:29 14.8 °C -0.2 °C 1003.2 hPa OSO 11.9 km/h 33.3 km/h 36% 0.0 mm
14:34 14.7 °C 0.1 °C 1003.2 hPa Oeste 14.6 km/h 33.8 km/h 36.8% 0.0 mm
14:39 14.7 °C 0.2 °C 1003.2 hPa ONO 16.1 km/h 30.6 km/h 37% 0.0 mm
14:44 14.7 °C 0.3 °C 1003.2 hPa Oeste 16.3 km/h 30.6 km/h 37.4% 0.0 mm
14:49 14.7 °C 0.2 °C 1003.2 hPa OSO 16.4 km/h 29.6 km/h 37.3% 0.0 mm
14:54 14.7 °C -0.1 °C 1003.2 hPa OSO 15.9 km/h 29 km/h 36.4% 0.0 mm
14:59 14.8 °C 0 °C 1003.0 hPa OSO 15.6 km/h 28.6 km/h 36.2% 0.0 mm
15:04 14.9 °C -0.1 °C 1003.0 hPa Oeste 15 km/h 29.6 km/h 35.9% 0.0 mm
15:09 14.8 °C -0.5 °C 1003.1 hPa Oeste 14.8 km/h 29.6 km/h 35% 0.0 mm
15:14 14.7 °C -0.4 °C 1003.1 hPa Oeste 14.1 km/h 29 km/h 35.4% 0.0 mm
15:19 14.8 °C -0.3 °C 1003.1 hPa Oeste 13.7 km/h 28.2 km/h 35.6% 0.0 mm
15:24 14.8 °C -0.6 °C 1003.1 hPa Oeste 13.9 km/h 27.4 km/h 35% 0.0 mm
15:29 14.8 °C -0.6 °C 1003.0 hPa Oeste 14 km/h 26.2 km/h 34.9% 0.0 mm
15:34 14.8 °C -0.9 °C 1003.0 hPa OSO 14 km/h 27 km/h 34.1% 0.0 mm
15:39 14.8 °C -0.9 °C 1003.0 hPa OSO 14 km/h 27.8 km/h 34% 0.0 mm
15:44 14.8 °C -0.9 °C 1003.0 hPa Oeste 15 km/h 27.8 km/h 34% 0.0 mm
15:49 14.8 °C -0.4 °C 1003.0 hPa Oeste 15.6 km/h 27.4 km/h 35.3% 0.0 mm
15:54 14.8 °C -0.1 °C 1003.1 hPa Oeste 13.9 km/h 22.5 km/h 36% 0.0 mm
15:59 14.8 °C -0.3 °C 1003.1 hPa Oeste 13 km/h 20.9 km/h 35.7% 0.0 mm
16:04 14.8 °C -0.1 °C 1003.1 hPa ONO 11.2 km/h 22.2 km/h 36.1% 0.0 mm
16:09 14.7 °C 0 °C 1003.1 hPa ONO 10.3 km/h 33.3 km/h 36.7% 0.0 mm
16:14 14.5 °C 0 °C 1003.1 hPa ONO 14.1 km/h 33.8 km/h 37.2% 0.0 mm
16:19 14.5 °C 0.3 °C 1003.1 hPa ONO 16.1 km/h 30.9 km/h 38% 0.0 mm
16:24 14.4 °C -0.1 °C 1003.3 hPa ONO 15.8 km/h 32.2 km/h 37.1% 0.0 mm
16:29 14.3 °C 0.2 °C 1003.3 hPa ONO 15.6 km/h 27.4 km/h 38% 0.0 mm
16:34 14.3 °C 0.2 °C 1003.3 hPa ONO 15.9 km/h 26.2 km/h 38% 0.0 mm
16:39 14.2 °C 0.1 °C 1003.5 hPa ONO 16.1 km/h 27.8 km/h 38% 0.0 mm
16:44 14.2 °C 0 °C 1003.5 hPa ONO 16.8 km/h 27.8 km/h 38% 0.0 mm
16:49 14.1 °C 0.2 °C 1003.5 hPa ONO 17.2 km/h 27.4 km/h 38.7% 0.0 mm
16:54 14.1 °C 0.3 °C 1003.5 hPa NO 16.7 km/h 26.2 km/h 39% 0.0 mm
16:59 13.9 °C 0.2 °C 1003.4 hPa ONO 16.4 km/h 29.8 km/h 39% 0.0 mm
17:04 13.8 °C 0.1 °C 1003.4 hPa ONO 17 km/h 33.5 km/h 39% 0.0 mm
17:09 13.8 °C 0 °C 1003.5 hPa ONO 17.2 km/h 33.8 km/h 39% 0.0 mm
17:14 13.7 °C 0 °C 1003.5 hPa ONO 14.5 km/h 22.2 km/h 39% 0.0 mm
17:19 13.7 °C 0 °C 1003.5 hPa ONO 13 km/h 26.2 km/h 39% 0.0 mm
17:24 13.6 °C -0.1 °C 1003.8 hPa ONO 14.2 km/h 25.7 km/h 39% 0.0 mm
17:29 13.5 °C 0 °C 1003.8 hPa ONO 14.8 km/h 24.1 km/h 39.5% 0.0 mm
17:34 13.4 °C 0.2 °C 1003.8 hPa ONO 13.7 km/h 24.1 km/h 40.3% 0.0 mm
17:39 13.4 °C 0.4 °C 1003.9 hPa ONO 13 km/h 25.6 km/h 41% 0.0 mm
17:44 13.3 °C 0.3 °C 1003.9 hPa Oeste 11.2 km/h 26.2 km/h 41% 0.0 mm
17:49 13.2 °C 0.2 °C 1003.9 hPa ONO 10.3 km/h 25.7 km/h 41% 0.0 mm
17:54 13.1 °C 0.1 °C 1003.9 hPa ONO 10.3 km/h 24.1 km/h 41% 0.0 mm
17:59 12.9 °C 0.2 °C 1003.9 hPa ONO 10.3 km/h 24.1 km/h 41.5% 0.0 mm
18:04 12.8 °C 0.2 °C 1003.9 hPa Oeste 10.1 km/h 22.5 km/h 42% 0.0 mm
18:09 12.8 °C 0.1 °C 1004.1 hPa ONO 10 km/h 22.5 km/h 42% 0.0 mm
18:14 12.7 °C 0.3 °C 1004.1 hPa Oeste 8.9 km/h 16.1 km/h 42.6% 0.0 mm
18:19 12.6 °C 0.3 °C 1004.1 hPa Oeste 8.4 km/h 13 km/h 43% 0.0 mm
18:24 12.5 °C 0.2 °C 1004.2 hPa Oeste 6.7 km/h 13 km/h 43% 0.0 mm
18:29 12.4 °C 0.2 °C 1004.2 hPa Oeste 5.8 km/h 13 km/h 43% 0.0 mm
18:34 12.3 °C 0.4 °C 1004.2 hPa Oeste 6.9 km/h 14.8 km/h 43.8% 0.0 mm
18:39 12.3 °C 0.4 °C 1004.4 hPa Oeste 7.6 km/h 14.5 km/h 44% 0.0 mm
18:44 12.2 °C 0.3 °C 1004.4 hPa Oeste 7.1 km/h 14.8 km/h 44% 0.0 mm
18:49 12.2 °C 0.3 °C 1004.4 hPa Oeste 6.9 km/h 14.5 km/h 44% 0.0 mm
18:54 12.1 °C 0.3 °C 1004.5 hPa OSO 7.4 km/h 14.5 km/h 44.3% 0.0 mm
18:59 12 °C 0.5 °C 1004.5 hPa Oeste 7.6 km/h 12.9 km/h 45% 0.0 mm
19:04 11.9 °C 0.3 °C 1004.5 hPa OSO 6.8 km/h 11.9 km/h 45% 0.0 mm
19:09 11.9 °C 0.3 °C 1004.5 hPa Oeste 6.5 km/h 13 km/h 45% 0.0 mm
19:14 11.9 °C 0.3 °C 1004.5 hPa OSO 6.8 km/h 13 km/h 45% 0.0 mm
19:19 11.8 °C 0.3 °C 1004.5 hPa OSO 6.9 km/h 13.7 km/h 45% 0.0 mm
19:24 11.8 °C 0.3 °C 1004.8 hPa OSO 6.2 km/h 14.5 km/h 45.3% 0.0 mm
19:29 11.8 °C 0.5 °C 1004.8 hPa OSO 5.8 km/h 12.9 km/h 45.9% 0.0 mm
19:34 11.8 °C 0.6 °C 1004.8 hPa OSO 5.1 km/h 9.3 km/h 46% 0.0 mm
19:39 11.7 °C 0.5 °C 1004.9 hPa OSO 4.7 km/h 9.7 km/h 46% 0.0 mm
19:44 11.7 °C 0.4 °C 1004.9 hPa Oeste 4.9 km/h 9.7 km/h 46% 0.0 mm
19:49 11.6 °C 0.4 °C 1004.9 hPa Oeste 5 km/h 14.8 km/h 46% 0.0 mm
19:54 11.6 °C 0.5 °C 1005.0 hPa SO 6.2 km/h 14.5 km/h 46.6% 0.0 mm
19:59 11.5 °C 0.5 °C 1005.0 hPa OSO 6.9 km/h 9.7 km/h 47% 0.0 mm
20:04 11.4 °C 0.5 °C 1005.0 hPa OSO 4.8 km/h 9.5 km/h 47% 0.0 mm
20:09 11.4 °C 0.5 °C 1005.1 hPa OSO 3.9 km/h 9.7 km/h 47% 0.0 mm
20:14 11.4 °C 0.5 °C 1005.1 hPa SO 4.4 km/h 10.3 km/h 47% 0.0 mm
20:19 11.4 °C 0.5 °C 1005.1 hPa SO 4.7 km/h 13.7 km/h 47% 0.0 mm
20:24 11.5 °C 0.5 °C 1005.3 hPa OSO 6.5 km/h 14.5 km/h 46.6% 0.0 mm
20:29 11.6 °C 0.4 °C 1005.3 hPa OSO 7.6 km/h 14.8 km/h 46.2% 0.0 mm
20:34 11.5 °C 0.6 °C 1005.3 hPa SSO 7.2 km/h 14.5 km/h 47% 0.0 mm
20:39 11.5 °C 0.5 °C 1005.3 hPa SSO 6.9 km/h 10 km/h 47% 0.0 mm
20:44 11.4 °C 0.5 °C 1005.2 hPa SO 5.5 km/h 9.7 km/h 47% 0.0 mm
20:49 11.4 °C 0.5 °C 1005.2 hPa OSO 4.7 km/h 11.9 km/h 47% 0.0 mm
20:54 11.3 °C 0.5 °C 1005.2 hPa OSO 5.4 km/h 11.3 km/h 47% 0.0 mm
20:59 11.3 °C 0.5 °C 1005.1 hPa OSO 5.8 km/h 14.8 km/h 47.6% 0.0 mm
21:04 11.2 °C 0.7 °C 1005.1 hPa SSE 5.2 km/h 14.5 km/h 48.4% 0.0 mm
21:09 11 °C 1 °C 1005.5 hPa SE 5 km/h 10 km/h 50.1% 0.0 mm
21:14 10.6 °C 1 °C 1005.5 hPa SE 5.5 km/h 10 km/h 51.5% 0.0 mm
21:19 10.3 °C 0.9 °C 1005.5 hPa SSE 5.8 km/h 11.9 km/h 52% 0.0 mm
21:24 10.2 °C 0.8 °C 1005.6 hPa Sur 6.9 km/h 11.3 km/h 52.3% 0.0 mm
21:29 10.1 °C 0.7 °C 1005.6 hPa Sur 7.6 km/h 11.3 km/h 52.2% 0.0 mm
21:34 10.1 °C 0.7 °C 1005.6 hPa Sur 8.1 km/h 11.9 km/h 52% 0.0 mm
21:39 10.2 °C 0.7 °C 1005.8 hPa Sur 8.4 km/h 15.6 km/h 52% 0.0 mm
21:44 10.1 °C 0.7 °C 1005.8 hPa Sur 9.4 km/h 16.1 km/h 52% 0.0 mm
21:49 10.1 °C 0.7 °C 1005.8 hPa Sur 10 km/h 13 km/h 52% 0.0 mm
21:54 10.1 °C 0.7 °C 1005.9 hPa Sur 8.9 km/h 12.9 km/h 52% 0.0 mm
21:59 10.1 °C 0.6 °C 1005.9 hPa SSO 8.4 km/h 13 km/h 51.7% 0.0 mm
22:04 10.2 °C 0.4 °C 1005.9 hPa Sur 8.6 km/h 14.8 km/h 51% 0.0 mm
22:09 10.2 °C 0.5 °C 1006.0 hPa SSO 8.7 km/h 16.7 km/h 51% 0.0 mm
22:14 10.2 °C 0.5 °C 1006.0 hPa SSO 9.5 km/h 16.1 km/h 51% 0.0 mm
22:19 10.2 °C 0.5 °C 1006.0 hPa SSO 10 km/h 14.8 km/h 51% 0.0 mm
22:24 10.2 °C 0.4 °C 1006.0 hPa Sur 9.7 km/h 14.5 km/h 51% 0.0 mm
22:29 10.2 °C 0.5 °C 1006.0 hPa SSO 9.5 km/h 12.9 km/h 51% 0.0 mm
22:34 10.1 °C 0.4 °C 1006.0 hPa SSO 8.3 km/h 12.9 km/h 51% 0.0 mm
22:39 10.1 °C 0.4 °C 1006.1 hPa SSO 7.6 km/h 11.3 km/h 50.9% 0.0 mm
22:44 10.1 °C 0.4 °C 1006.1 hPa SSO 6.8 km/h 10 km/h 50.9% 0.0 mm
22:49 10.1 °C 0.4 °C 1006.1 hPa SSO 6.5 km/h 9.7 km/h 51% 0.0 mm
22:54 10.1 °C 0.4 °C 1006.3 hPa SO 6 km/h 9.7 km/h 51% 0.0 mm
22:59 9.9 °C 0.4 °C 1006.3 hPa SO 5.8 km/h 8 km/h 51.4% 0.0 mm
23:04 9.8 °C 0.7 °C 1006.3 hPa ONO 4 km/h 8 km/h 53% 0.0 mm
23:09 9.6 °C 0.7 °C 1006.3 hPa ONO 3.2 km/h 8 km/h 54% 0.0 mm
23:14 9.3 °C 0.8 °C 1006.3 hPa NO 3.2 km/h 9.5 km/h 55.4% 0.0 mm
23:19 8.9 °C 1 °C 1006.3 hPa NO 3.2 km/h 9.7 km/h 57.3% 0.0 mm
23:24 8.7 °C 1 °C 1006.5 hPa NO 4.2 km/h 8 km/h 58.5% 0.0 mm
23:29 8.4 °C 0.9 °C 1006.5 hPa NO 4.7 km/h 8 km/h 59% 0.0 mm
23:34 8.4 °C 0.9 °C 1006.5 hPa NO 3.7 km/h 8.4 km/h 59.4% 0.0 mm
23:39 8.3 °C 0.8 °C 1006.7 hPa ONO 3.2 km/h 8 km/h 59.4% 0.0 mm
23:44 8.3 °C 1 °C 1006.7 hPa Oeste 3.6 km/h 8 km/h 59.9% 0.0 mm
23:49 8.4 °C 1 °C 1006.7 hPa ONO 3.9 km/h 8 km/h 60% 0.0 mm
23:54 8.3 °C 1 °C 1006.7 hPa ONO 3.4 km/h 6.4 km/h 60% 0.0 mm
23:59 8.3 °C 1 °C 1006.7 hPa Oeste 3.2 km/h 8 km/h 60% 0.0 mm
Murcia-Puente Tocinos, España
Compliments of Weather Underground - 3 mb

La estación de MeteoMurcia.com, publica sus datos en los siguientes proyectos:

Weather Underground PWS IMURCIAP2 Meteoclimatic www.awekas.at

W3Counter
Web Analytics